sensor_id;sensor_type;location;lat;lon;timestamp;temperature;humidity
6210;DHT22;3138;52.550;13.148;2023-02-25T00:01:17;3.80;77.70
6210;DHT22;3138;52.550;13.148;2023-02-25T00:03:44;3.80;29.30
6210;DHT22;3138;52.550;13.148;2023-02-25T00:06:12;3.90;1.00
6210;DHT22;3138;52.550;13.148;2023-02-25T00:08:42;3.90;1.00
6210;DHT22;3138;52.550;13.148;2023-02-25T00:11:11;3.90;1.00
6210;DHT22;3138;52.550;13.148;2023-02-25T00:13:39;3.90;1.00
6210;DHT22;3138;52.550;13.148;2023-02-25T00:16:07;3.90;1.00
6210;DHT22;3138;52.550;13.148;2023-02-25T00:18:35;3.00;33.40
6210;DHT22;3138;52.550;13.148;2023-02-25T00:21:06;2.50;81.10
6210;DHT22;3138;52.550;13.148;2023-02-25T00:23:34;2.20;99.90
6210;DHT22;3138;52.550;13.148;2023-02-25T00:26:04;2.10;1.00
6210;DHT22;3138;52.550;13.148;2023-02-25T00:28:32;2.00;91.40
6210;DHT22;3138;52.550;13.148;2023-02-25T00:30:59;2.00;99.90
6210;DHT22;3138;52.550;13.148;2023-02-25T00:33:26;2.00;1.00
6210;DHT22;3138;52.550;13.148;2023-02-25T00:35:53;2.00;1.00
6210;DHT22;3138;52.550;13.148;2023-02-25T00:38:20;2.00;1.00
6210;DHT22;3138;52.550;13.148;2023-02-25T00:40:47;2.00;1.00
6210;DHT22;3138;52.550;13.148;2023-02-25T00:43:15;2.10;1.00
6210;DHT22;3138;52.550;13.148;2023-02-25T00:45:42;2.10;1.00
6210;DHT22;3138;52.550;13.148;2023-02-25T00:48:08;2.20;26.00
6210;DHT22;3138;52.550;13.148;2023-02-25T00:50:35;2.20;65.40
6210;DHT22;3138;52.550;13.148;2023-02-25T00:53:04;2.30;99.90
6210;DHT22;3138;52.550;13.148;2023-02-25T00:55:31;2.40;99.90
6210;DHT22;3138;52.550;13.148;2023-02-25T00:57:59;2.40;99.90
6210;DHT22;3138;52.550;13.148;2023-02-25T01:00:27;2.50;99.90
6210;DHT22;3138;52.550;13.148;2023-02-25T01:02:56;2.60;99.90
6210;DHT22;3138;52.550;13.148;2023-02-25T01:05:23;2.60;99.90
6210;DHT22;3138;52.550;13.148;2023-02-25T01:07:50;2.70;99.90
6210;DHT22;3138;52.550;13.148;2023-02-25T01:10:17;2.70;99.90
6210;DHT22;3138;52.550;13.148;2023-02-25T01:12:44;2.80;99.90
6210;DHT22;3138;52.550;13.148;2023-02-25T01:15:11;2.80;99.90
6210;DHT22;3138;52.550;13.148;2023-02-25T01:17:40;2.90;99.90
6210;DHT22;3138;52.550;13.148;2023-02-25T01:20:08;2.90;99.90
6210;DHT22;3138;52.550;13.148;2023-02-25T01:22:38;2.90;99.90
6210;DHT22;3138;52.550;13.148;2023-02-25T01:25:09;2.90;99.90
6210;DHT22;3138;52.550;13.148;2023-02-25T01:27:37;3.00;99.90
6210;DHT22;3138;52.550;13.148;2023-02-25T01:30:05;3.00;99.90
6210;DHT22;3138;52.550;13.148;2023-02-25T01:32:32;3.10;99.90
6210;DHT22;3138;52.550;13.148;2023-02-25T01:35:00;3.10;99.90
6210;DHT22;3138;52.550;13.148;2023-02-25T01:37:27;3.10;99.90
6210;DHT22;3138;52.550;13.148;2023-02-25T01:39:54;3.10;99.90
6210;DHT22;3138;52.550;13.148;2023-02-25T01:42:21;3.10;99.90
6210;DHT22;3138;52.550;13.148;2023-02-25T01:47:57;3.20;99.90
6210;DHT22;3138;52.550;13.148;2023-02-25T01:50:32;3.10;99.90
6210;DHT22;3138;52.550;13.148;2023-02-25T01:53:02;3.10;58.40
6210;DHT22;3138;52.550;13.148;2023-02-25T01:55:30;3.10;1.00
6210;DHT22;3138;52.550;13.148;2023-02-25T01:57:57;3.20;1.00
6210;DHT22;3138;52.550;13.148;2023-02-25T02:00:25;3.10;1.00
6210;DHT22;3138;52.550;13.148;2023-02-25T02:02:54;3.20;1.00
6210;DHT22;3138;52.550;13.148;2023-02-25T02:05:25;3.20;99.90
6210;DHT22;3138;52.550;13.148;2023-02-25T02:07:56;3.20;99.90
6210;DHT22;3138;52.550;13.148;2023-02-25T02:10:22;3.20;99.20
6210;DHT22;3138;52.550;13.148;2023-02-25T02:12:49;3.20;1.00
6210;DHT22;3138;52.550;13.148;2023-02-25T02:15:16;3.20;1.00
6210;DHT22;3138;52.550;13.148;2023-02-25T02:17:47;3.20;99.90
6210;DHT22;3138;52.550;13.148;2023-02-25T02:20:18;3.20;99.90
6210;DHT22;3138;52.550;13.148;2023-02-25T02:23:16;3.20;99.90
6210;DHT22;3138;52.550;13.148;2023-02-25T02:26:09;3.20;99.90
6210;DHT22;3138;52.550;13.148;2023-02-25T02:29:05;3.20;99.90
6210;DHT22;3138;52.550;13.148;2023-02-25T02:31:53;3.20;99.90
6210;DHT22;3138;52.550;13.148;2023-02-25T02:34:34;3.20;99.90
6210;DHT22;3138;52.550;13.148;2023-02-25T02:37:11;3.20;99.90
6210;DHT22;3138;52.550;13.148;2023-02-25T02:39:49;3.20;60.70
6210;DHT22;3138;52.550;13.148;2023-02-25T02:42:27;3.20;54.70
6210;DHT22;3138;52.550;13.148;2023-02-25T02:45:01;3.20;1.00
6210;DHT22;3138;52.550;13.148;2023-02-25T02:47:33;3.20;1.00
6210;DHT22;3138;52.550;13.148;2023-02-25T02:50:05;3.20;1.00
6210;DHT22;3138;52.550;13.148;2023-02-25T02:52:38;3.10;1.00
6210;DHT22;3138;52.550;13.148;2023-02-25T02:55:11;3.10;1.00
6210;DHT22;3138;52.550;13.148;2023-02-25T02:57:47;3.10;61.30
6210;DHT22;3138;52.550;13.148;2023-02-25T03:00:19;3.10;99.90
6210;DHT22;3138;52.550;13.148;2023-02-25T03:02:56;3.10;99.90
6210;DHT22;3138;52.550;13.148;2023-02-25T03:05:24;3.10;99.90
6210;DHT22;3138;52.550;13.148;2023-02-25T03:07:58;3.10;99.90
6210;DHT22;3138;52.550;13.148;2023-02-25T03:10:26;3.10;99.90
6210;DHT22;3138;52.550;13.148;2023-02-25T03:12:54;3.10;99.90
6210;DHT22;3138;52.550;13.148;2023-02-25T03:15:22;3.10;82.30
6210;DHT22;3138;52.550;13.148;2023-02-25T03:17:53;3.00;1.00
6210;DHT22;3138;52.550;13.148;2023-02-25T03:20:25;3.00;1.00
6210;DHT22;3138;52.550;13.148;2023-02-25T03:22:55;3.00;1.00
6210;DHT22;3138;52.550;13.148;2023-02-25T03:25:24;3.00;1.00
6210;DHT22;3138;52.550;13.148;2023-02-25T03:27:55;3.00;51.10
6210;DHT22;3138;52.550;13.148;2023-02-25T03:30:27;3.00;99.90
6210;DHT22;3138;52.550;13.148;2023-02-25T03:33:00;2.90;99.90
6210;DHT22;3138;52.550;13.148;2023-02-25T03:35:29;2.90;7.70
6210;DHT22;3138;52.550;13.148;2023-02-25T03:38:00;2.90;1.00
6210;DHT22;3138;52.550;13.148;2023-02-25T03:40:29;2.90;1.00
6210;DHT22;3138;52.550;13.148;2023-02-25T03:43:01;2.90;1.00
6210;DHT22;3138;52.550;13.148;2023-02-25T03:45:32;2.90;1.00
6210;DHT22;3138;52.550;13.148;2023-02-25T03:48:02;2.90;1.00
6210;DHT22;3138;52.550;13.148;2023-02-25T03:50:33;2.90;1.00
6210;DHT22;3138;52.550;13.148;2023-02-25T03:53:02;2.90;1.00
6210;DHT22;3138;52.550;13.148;2023-02-25T03:55:29;2.90;1.00
6210;DHT22;3138;52.550;13.148;2023-02-25T03:57:56;2.90;1.00
6210;DHT22;3138;52.550;13.148;2023-02-25T04:00:25;2.90;1.00
6210;DHT22;3138;52.550;13.148;2023-02-25T04:02:52;2.80;1.00
6210;DHT22;3138;52.550;13.148;2023-02-25T04:05:22;2.80;1.00
6210;DHT22;3138;52.550;13.148;2023-02-25T04:07:52;2.80;1.00
6210;DHT22;3138;52.550;13.148;2023-02-25T04:10:19;2.80;1.00
6210;DHT22;3138;52.550;13.148;2023-02-25T04:12:46;2.80;1.00
6210;DHT22;3138;52.550;13.148;2023-02-25T04:15:15;2.70;1.00
6210;DHT22;3138;52.550;13.148;2023-02-25T04:17:43;2.70;49.10
6210;DHT22;3138;52.550;13.148;2023-02-25T04:20:11;2.70;92.70
6210;DHT22;3138;52.550;13.148;2023-02-25T04:22:39;2.70;94.00
6210;DHT22;3138;52.550;13.148;2023-02-25T04:25:07;2.70;40.10
6210;DHT22;3138;52.550;13.148;2023-02-25T04:27:34;2.70;1.60
6210;DHT22;3138;52.550;13.148;2023-02-25T04:30:01;2.70;26.10
6210;DHT22;3138;52.550;13.148;2023-02-25T04:32:27;2.70;47.60
6210;DHT22;3138;52.550;13.148;2023-02-25T04:34:54;2.70;34.60
6210;DHT22;3138;52.550;13.148;2023-02-25T04:37:22;2.70;21.70
6210;DHT22;3138;52.550;13.148;2023-02-25T04:39:50;2.70;99.90
6210;DHT22;3138;52.550;13.148;2023-02-25T04:42:17;2.60;99.90
6210;DHT22;3138;52.550;13.148;2023-02-25T04:44:43;2.70;99.90
6210;DHT22;3138;52.550;13.148;2023-02-25T04:47:10;2.70;99.90
6210;DHT22;3138;52.550;13.148;2023-02-25T04:49:37;2.70;48.50
6210;DHT22;3138;52.550;13.148;2023-02-25T04:52:09;2.70;32.00
6210;DHT22;3138;52.550;13.148;2023-02-25T04:54:36;2.70;1.00
6210;DHT22;3138;52.550;13.148;2023-02-25T04:57:05;2.70;1.00
6210;DHT22;3138;52.550;13.148;2023-02-25T04:59:32;2.70;1.00
6210;DHT22;3138;52.550;13.148;2023-02-25T05:01:59;2.70;1.00
6210;DHT22;3138;52.550;13.148;2023-02-25T05:04:26;2.60;1.00
6210;DHT22;3138;52.550;13.148;2023-02-25T05:06:53;2.60;1.00
6210;DHT22;3138;52.550;13.148;2023-02-25T05:09:19;2.60;20.70
6210;DHT22;3138;52.550;13.148;2023-02-25T05:11:46;2.60;43.60
6210;DHT22;3138;52.550;13.148;2023-02-25T05:14:15;2.50;99.90
6210;DHT22;3138;52.550;13.148;2023-02-25T05:16:41;2.50;99.90
6210;DHT22;3138;52.550;13.148;2023-02-25T05:19:13;2.50;99.90
6210;DHT22;3138;52.550;13.148;2023-02-25T05:21:40;2.50;99.90
6210;DHT22;3138;52.550;13.148;2023-02-25T05:24:07;2.40;99.90
6210;DHT22;3138;52.550;13.148;2023-02-25T05:26:35;2.40;1.00
6210;DHT22;3138;52.550;13.148;2023-02-25T05:29:02;2.40;1.00
6210;DHT22;3138;52.550;13.148;2023-02-25T05:31:30;2.30;1.00
6210;DHT22;3138;52.550;13.148;2023-02-25T05:33:57;2.40;1.00
6210;DHT22;3138;52.550;13.148;2023-02-25T05:36:24;2.40;1.00
6210;DHT22;3138;52.550;13.148;2023-02-25T05:38:52;2.40;1.00
6210;DHT22;3138;52.550;13.148;2023-02-25T05:41:19;2.40;1.00
6210;DHT22;3138;52.550;13.148;2023-02-25T05:43:46;2.30;1.00
6210;DHT22;3138;52.550;13.148;2023-02-25T05:46:14;2.30;1.00
6210;DHT22;3138;52.550;13.148;2023-02-25T05:48:43;2.30;1.00
6210;DHT22;3138;52.550;13.148;2023-02-25T05:51:13;2.30;50.30
6210;DHT22;3138;52.550;13.148;2023-02-25T05:53:41;2.20;99.90
6210;DHT22;3138;52.550;13.148;2023-02-25T05:56:17;2.20;99.90
6210;DHT22;3138;52.550;13.148;2023-02-25T05:58:44;2.10;99.90
6210;DHT22;3138;52.550;13.148;2023-02-25T06:01:14;2.00;99.90
6210;DHT22;3138;52.550;13.148;2023-02-25T06:03:44;2.00;99.90
6210;DHT22;3138;52.550;13.148;2023-02-25T06:06:12;2.00;99.90
6210;DHT22;3138;52.550;13.148;2023-02-25T06:08:40;2.00;99.90
6210;DHT22;3138;52.550;13.148;2023-02-25T06:11:09;1.90;99.90
6210;DHT22;3138;52.550;13.148;2023-02-25T06:13:39;1.80;1.00
6210;DHT22;3138;52.550;13.148;2023-02-25T06:16:06;1.90;1.00
6210;DHT22;3138;52.550;13.148;2023-02-25T06:18:33;1.80;1.00
6210;DHT22;3138;52.550;13.148;2023-02-25T06:21:05;1.80;1.00
6210;DHT22;3138;52.550;13.148;2023-02-25T06:23:32;1.80;1.00
6210;DHT22;3138;52.550;13.148;2023-02-25T06:25:59;1.80;1.00
6210;DHT22;3138;52.550;13.148;2023-02-25T06:28:27;1.80;1.00
6210;DHT22;3138;52.550;13.148;2023-02-25T06:30:54;1.80;1.00
6210;DHT22;3138;52.550;13.148;2023-02-25T06:33:20;1.80;1.00
6210;DHT22;3138;52.550;13.148;2023-02-25T06:35:49;1.80;1.00
6210;DHT22;3138;52.550;13.148;2023-02-25T06:38:18;1.80;1.00
6210;DHT22;3138;52.550;13.148;2023-02-25T06:40:45;1.80;1.00
6210;DHT22;3138;52.550;13.148;2023-02-25T06:43:12;1.80;1.00
6210;DHT22;3138;52.550;13.148;2023-02-25T06:45:38;1.80;1.00
6210;DHT22;3138;52.550;13.148;2023-02-25T06:48:05;1.90;1.00
6210;DHT22;3138;52.550;13.148;2023-02-25T06:50:32;1.90;1.00
6210;DHT22;3138;52.550;13.148;2023-02-25T06:52:59;1.90;1.00
6210;DHT22;3138;52.550;13.148;2023-02-25T06:55:27;1.90;1.00
6210;DHT22;3138;52.550;13.148;2023-02-25T06:57:54;2.00;1.00
6210;DHT22;3138;52.550;13.148;2023-02-25T07:00:24;2.00;1.00
6210;DHT22;3138;52.550;13.148;2023-02-25T07:02:51;2.00;1.00
6210;DHT22;3138;52.550;13.148;2023-02-25T07:05:18;2.10;1.00
6210;DHT22;3138;52.550;13.148;2023-02-25T07:07:45;2.00;1.00
6210;DHT22;3138;52.550;13.148;2023-02-25T07:10:11;2.10;1.00
6210;DHT22;3138;52.550;13.148;2023-02-25T07:12:40;2.10;99.90
6210;DHT22;3138;52.550;13.148;2023-02-25T07:15:08;2.10;99.90
6210;DHT22;3138;52.550;13.148;2023-02-25T07:17:35;2.10;99.90
6210;DHT22;3138;52.550;13.148;2023-02-25T07:20:03;2.10;99.90
6210;DHT22;3138;52.550;13.148;2023-02-25T07:22:30;2.10;99.90
6210;DHT22;3138;52.550;13.148;2023-02-25T07:24:56;2.10;99.90
6210;DHT22;3138;52.550;13.148;2023-02-25T07:27:23;2.00;99.90
6210;DHT22;3138;52.550;13.148;2023-02-25T07:29:51;2.10;99.90
6210;DHT22;3138;52.550;13.148;2023-02-25T07:32:21;2.00;99.90
6210;DHT22;3138;52.550;13.148;2023-02-25T07:34:49;2.10;87.80
6210;DHT22;3138;52.550;13.148;2023-02-25T07:37:15;2.10;50.80
6210;DHT22;3138;52.550;13.148;2023-02-25T07:39:42;2.10;7.50
6210;DHT22;3138;52.550;13.148;2023-02-25T07:42:09;2.10;1.00
6210;DHT22;3138;52.550;13.148;2023-02-25T07:44:36;2.10;1.00
6210;DHT22;3138;52.550;13.148;2023-02-25T07:47:04;2.10;1.00
6210;DHT22;3138;52.550;13.148;2023-02-25T07:49:31;2.10;1.00
6210;DHT22;3138;52.550;13.148;2023-02-25T07:51:58;2.10;1.00
6210;DHT22;3138;52.550;13.148;2023-02-25T07:54:28;2.20;1.00
6210;DHT22;3138;52.550;13.148;2023-02-25T07:56:55;2.10;1.00
6210;DHT22;3138;52.550;13.148;2023-02-25T07:59:22;2.10;1.00
6210;DHT22;3138;52.550;13.148;2023-02-25T08:01:49;2.10;1.00
6210;DHT22;3138;52.550;13.148;2023-02-25T08:04:17;2.10;99.90
6210;DHT22;3138;52.550;13.148;2023-02-25T08:06:44;2.10;99.90
6210;DHT22;3138;52.550;13.148;2023-02-25T08:09:12;2.10;99.90
6210;DHT22;3138;52.550;13.148;2023-02-25T08:11:39;2.10;99.90
6210;DHT22;3138;52.550;13.148;2023-02-25T08:14:07;2.10;99.90
6210;DHT22;3138;52.550;13.148;2023-02-25T08:16:33;2.10;99.90
6210;DHT22;3138;52.550;13.148;2023-02-25T08:19:01;2.00;42.30
6210;DHT22;3138;52.550;13.148;2023-02-25T08:21:32;2.10;21.10
6210;DHT22;3138;52.550;13.148;2023-02-25T08:23:59;2.10;82.30
6210;DHT22;3138;52.550;13.148;2023-02-25T08:26:26;2.20;99.90
6210;DHT22;3138;52.550;13.148;2023-02-25T08:28:53;2.20;1.00
6210;DHT22;3138;52.550;13.148;2023-02-25T08:31:21;2.20;1.00
6210;DHT22;3138;52.550;13.148;2023-02-25T08:33:49;2.20;1.00
6210;DHT22;3138;52.550;13.148;2023-02-25T08:36:19;2.20;1.00
6210;DHT22;3138;52.550;13.148;2023-02-25T08:38:48;2.30;1.00
6210;DHT22;3138;52.550;13.148;2023-02-25T08:41:16;2.30;1.00
6210;DHT22;3138;52.550;13.148;2023-02-25T08:43:43;2.30;99.90
6210;DHT22;3138;52.550;13.148;2023-02-25T08:46:13;2.30;99.90
6210;DHT22;3138;52.550;13.148;2023-02-25T08:48:40;2.40;99.90
6210;DHT22;3138;52.550;13.148;2023-02-25T08:51:08;2.30;20.30
6210;DHT22;3138;52.550;13.148;2023-02-25T08:53:35;2.30;1.00
6210;DHT22;3138;52.550;13.148;2023-02-25T08:56:04;2.20;1.00
6210;DHT22;3138;52.550;13.148;2023-02-25T08:58:31;2.30;1.00
6210;DHT22;3138;52.550;13.148;2023-02-25T09:00:59;2.20;1.00
6210;DHT22;3138;52.550;13.148;2023-02-25T09:03:26;2.30;26.70
6210;DHT22;3138;52.550;13.148;2023-02-25T09:05:54;2.30;20.00
6210;DHT22;3138;52.550;13.148;2023-02-25T09:08:21;2.20;1.00
6210;DHT22;3138;52.550;13.148;2023-02-25T09:10:48;2.30;1.00
6210;DHT22;3138;52.550;13.148;2023-02-25T09:13:16;2.20;1.00
6210;DHT22;3138;52.550;13.148;2023-02-25T09:15:43;2.20;1.00
6210;DHT22;3138;52.550;13.148;2023-02-25T09:18:12;2.20;1.00
6210;DHT22;3138;52.550;13.148;2023-02-25T09:20:42;2.20;1.00
6210;DHT22;3138;52.550;13.148;2023-02-25T09:23:16;2.30;99.90
6210;DHT22;3138;52.550;13.148;2023-02-25T09:25:45;2.20;17.80
6210;DHT22;3138;52.550;13.148;2023-02-25T09:28:12;2.40;21.90
6210;DHT22;3138;52.550;13.148;2023-02-25T09:30:44;2.40;1.00
6210;DHT22;3138;52.550;13.148;2023-02-25T09:33:11;2.60;1.00
6210;DHT22;3138;52.550;13.148;2023-02-25T09:35:38;2.70;1.00
6210;DHT22;3138;52.550;13.148;2023-02-25T09:38:06;2.80;99.90
6210;DHT22;3138;52.550;13.148;2023-02-25T09:40:33;3.00;99.90
6210;DHT22;3138;52.550;13.148;2023-02-25T09:43:06;2.90;1.00
6210;DHT22;3138;52.550;13.148;2023-02-25T09:45:34;2.80;1.00
6210;DHT22;3138;52.550;13.148;2023-02-25T09:48:16;2.60;1.00
6210;DHT22;3138;52.550;13.148;2023-02-25T09:50:48;2.60;99.90
6210;DHT22;3138;52.550;13.148;2023-02-25T09:53:20;2.60;99.90
6210;DHT22;3138;52.550;13.148;2023-02-25T09:55:51;2.70;99.90
6210;DHT22;3138;52.550;13.148;2023-02-25T09:58:25;2.50;99.90
6210;DHT22;3138;52.550;13.148;2023-02-25T10:00:59;2.20;1.00
6210;DHT22;3138;52.550;13.148;2023-02-25T10:03:41;2.00;1.00
6210;DHT22;3138;52.550;13.148;2023-02-25T10:06:14;2.00;27.30
6210;DHT22;3138;52.550;13.148;2023-02-25T10:08:46;2.10;99.90
6210;DHT22;3138;52.550;13.148;2023-02-25T10:11:20;2.20;1.00
6210;DHT22;3138;52.550;13.148;2023-02-25T10:13:56;2.10;99.90
6210;DHT22;3138;52.550;13.148;2023-02-25T10:16:38;2.10;1.00
6210;DHT22;3138;52.550;13.148;2023-02-25T10:19:21;2.30;1.00
6210;DHT22;3138;52.550;13.148;2023-02-25T10:22:04;2.40;1.00
6210;DHT22;3138;52.550;13.148;2023-02-25T10:24:41;2.80;1.00
6210;DHT22;3138;52.550;13.148;2023-02-25T10:27:18;2.90;1.00
6210;DHT22;3138;52.550;13.148;2023-02-25T10:29:47;2.90;99.90
6210;DHT22;3138;52.550;13.148;2023-02-25T10:32:21;3.00;1.00
6210;DHT22;3138;52.550;13.148;2023-02-25T10:34:51;2.90;92.50
6210;DHT22;3138;52.550;13.148;2023-02-25T10:37:21;2.80;99.90
6210;DHT22;3138;52.550;13.148;2023-02-25T10:40:06;2.80;1.00
6210;DHT22;3138;52.550;13.148;2023-02-25T10:42:38;3.00;94.90
6210;DHT22;3138;52.550;13.148;2023-02-25T10:45:08;3.30;99.90
6210;DHT22;3138;52.550;13.148;2023-02-25T10:47:39;3.10;1.00
6210;DHT22;3138;52.550;13.148;2023-02-25T10:50:18;2.90;99.90
6210;DHT22;3138;52.550;13.148;2023-02-25T10:52:55;2.90;99.90
6210;DHT22;3138;52.550;13.148;2023-02-25T10:58:30;3.00;99.90
6210;DHT22;3138;52.550;13.148;2023-02-25T11:01:03;3.10;1.00
6210;DHT22;3138;52.550;13.148;2023-02-25T11:03:32;3.00;1.00
6210;DHT22;3138;52.550;13.148;2023-02-25T11:06:16;3.20;1.00
6210;DHT22;3138;52.550;13.148;2023-02-25T11:08:44;3.40;99.90
6210;DHT22;3138;52.550;13.148;2023-02-25T11:11:16;3.40;99.90
6210;DHT22;3138;52.550;13.148;2023-02-25T11:13:58;3.40;29.30
6210;DHT22;3138;52.550;13.148;2023-02-25T11:16:34;3.50;1.00
6210;DHT22;3138;52.550;13.148;2023-02-25T11:19:09;3.50;1.00
6210;DHT22;3138;52.550;13.148;2023-02-25T11:21:39;3.70;1.00
6210;DHT22;3138;52.550;13.148;2023-02-25T11:24:11;3.40;1.00
6210;DHT22;3138;52.550;13.148;2023-02-25T11:26:43;3.30;1.00
6210;DHT22;3138;52.550;13.148;2023-02-25T11:29:13;3.20;99.90
6210;DHT22;3138;52.550;13.148;2023-02-25T11:31:42;3.00;1.00
6210;DHT22;3138;52.550;13.148;2023-02-25T11:34:14;2.80;1.00
6210;DHT22;3138;52.550;13.148;2023-02-25T11:36:46;2.70;1.00
6210;DHT22;3138;52.550;13.148;2023-02-25T11:39:25;2.70;1.00
6210;DHT22;3138;52.550;13.148;2023-02-25T11:41:54;2.60;2.60
6210;DHT22;3138;52.550;13.148;2023-02-25T11:44:24;2.30;99.90
6210;DHT22;3138;52.550;13.148;2023-02-25T11:46:59;2.10;1.00
6210;DHT22;3138;52.550;13.148;2023-02-25T11:49:47;2.20;1.00
6210;DHT22;3138;52.550;13.148;2023-02-25T11:52:22;2.60;46.50
6210;DHT22;3138;52.550;13.148;2023-02-25T11:55:01;2.70;1.00
6210;DHT22;3138;52.550;13.148;2023-02-25T11:57:41;2.50;1.00
6210;DHT22;3138;52.550;13.148;2023-02-25T12:00:20;2.70;99.90
6210;DHT22;3138;52.550;13.148;2023-02-25T12:02:58;2.60;99.90
6210;DHT22;3138;52.550;13.148;2023-02-25T12:05:46;2.60;99.90
6210;DHT22;3138;52.550;13.148;2023-02-25T12:08:24;2.20;99.90
6210;DHT22;3138;52.550;13.148;2023-02-25T12:14:27;1.70;99.90
6210;DHT22;3138;52.550;13.148;2023-02-25T12:17:19;1.60;99.90
6210;DHT22;3138;52.550;13.148;2023-02-25T12:20:15;1.70;99.90
6210;DHT22;3138;52.550;13.148;2023-02-25T12:26:10;1.80;1.00
6210;DHT22;3138;52.550;13.148;2023-02-25T12:28:53;1.80;78.20
6210;DHT22;3138;52.550;13.148;2023-02-25T12:34:41;1.80;88.60
6210;DHT22;3138;52.550;13.148;2023-02-25T12:37:28;1.60;1.00
6210;DHT22;3138;52.550;13.148;2023-02-25T12:40:06;1.60;1.00
6210;DHT22;3138;52.550;13.148;2023-02-25T12:42:47;1.70;1.00
6210;DHT22;3138;52.550;13.148;2023-02-25T12:45:38;1.80;99.90
6210;DHT22;3138;52.550;13.148;2023-02-25T12:48:30;2.00;99.90
6210;DHT22;3138;52.550;13.148;2023-02-25T12:51:20;2.00;55.00
6210;DHT22;3138;52.550;13.148;2023-02-25T12:53:56;2.10;95.80
6210;DHT22;3138;52.550;13.148;2023-02-25T12:56:55;2.00;1.00
6210;DHT22;3138;52.550;13.148;2023-02-25T12:59:40;2.00;99.90
6210;DHT22;3138;52.550;13.148;2023-02-25T13:02:25;1.90;99.90
6210;DHT22;3138;52.550;13.148;2023-02-25T13:10:56;1.80;99.90
6210;DHT22;3138;52.550;13.148;2023-02-25T13:13:57;1.80;1.00
6210;DHT22;3138;52.550;13.148;2023-02-25T13:22:35;1.60;1.00
6210;DHT22;3138;52.550;13.148;2023-02-25T13:25:15;1.30;1.00
6210;DHT22;3138;52.550;13.148;2023-02-25T13:28:08;1.10;99.90
6210;DHT22;3138;52.550;13.148;2023-02-25T13:30:43;1.20;1.00
6210;DHT22;3138;52.550;13.148;2023-02-25T13:33:40;1.30;46.00
6210;DHT22;3138;52.550;13.148;2023-02-25T13:36:38;1.50;1.00
6210;DHT22;3138;52.550;13.148;2023-02-25T13:39:24;1.60;1.00
6210;DHT22;3138;52.550;13.148;2023-02-25T13:42:07;1.70;99.90
6210;DHT22;3138;52.550;13.148;2023-02-25T13:47:50;1.80;1.00
6210;DHT22;3138;52.550;13.148;2023-02-25T13:50:46;1.80;35.60
6210;DHT22;3138;52.550;13.148;2023-02-25T13:53:29;1.90;1.00
6210;DHT22;3138;52.550;13.148;2023-02-25T13:56:16;2.10;1.00
6210;DHT22;3138;52.550;13.148;2023-02-25T13:58:57;2.10;1.00
6210;DHT22;3138;52.550;13.148;2023-02-25T14:01:42;2.10;1.00
6210;DHT22;3138;52.550;13.148;2023-02-25T14:07:26;2.10;99.90
6210;DHT22;3138;52.550;13.148;2023-02-25T14:10:11;2.10;99.90
6210;DHT22;3138;52.550;13.148;2023-02-25T14:12:47;2.20;99.90
6210;DHT22;3138;52.550;13.148;2023-02-25T14:15:20;2.20;99.90
6210;DHT22;3138;52.550;13.148;2023-02-25T14:18:07;2.20;99.90
6210;DHT22;3138;52.550;13.148;2023-02-25T14:20:56;2.20;99.90
6210;DHT22;3138;52.550;13.148;2023-02-25T14:23:39;2.20;99.90
6210;DHT22;3138;52.550;13.148;2023-02-25T14:26:27;2.30;99.90
6210;DHT22;3138;52.550;13.148;2023-02-25T14:29:06;2.30;95.70
6210;DHT22;3138;52.550;13.148;2023-02-25T14:31:45;2.40;94.40
6210;DHT22;3138;52.550;13.148;2023-02-25T14:34:34;2.40;81.30
6210;DHT22;3138;52.550;13.148;2023-02-25T14:37:15;2.30;12.20
6210;DHT22;3138;52.550;13.148;2023-02-25T14:40:11;2.30;1.00
6210;DHT22;3138;52.550;13.148;2023-02-25T14:42:56;2.20;1.00
6210;DHT22;3138;52.550;13.148;2023-02-25T14:45:29;2.10;1.00
6210;DHT22;3138;52.550;13.148;2023-02-25T14:48:01;2.10;1.00
6210;DHT22;3138;52.550;13.148;2023-02-25T14:50:31;2.00;1.00
6210;DHT22;3138;52.550;13.148;2023-02-25T14:56:37;2.00;1.00
6210;DHT22;3138;52.550;13.148;2023-02-25T15:02:36;2.10;1.00
6210;DHT22;3138;52.550;13.148;2023-02-25T15:05:37;2.10;1.00
6210;DHT22;3138;52.550;13.148;2023-02-25T15:08:30;1.90;1.00
6210;DHT22;3138;52.550;13.148;2023-02-25T15:11:15;1.90;1.00
6210;DHT22;3138;52.550;13.148;2023-02-25T15:14:05;1.90;1.00
6210;DHT22;3138;52.550;13.148;2023-02-25T15:22:26;2.00;1.00
6210;DHT22;3138;52.550;13.148;2023-02-25T15:25:25;1.90;1.00
6210;DHT22;3138;52.550;13.148;2023-02-25T15:27:55;1.90;1.00
6210;DHT22;3138;52.550;13.148;2023-02-25T15:31:04;1.70;99.90
6210;DHT22;3138;52.550;13.148;2023-02-25T15:33:33;1.50;99.90
6210;DHT22;3138;52.550;13.148;2023-02-25T15:36:02;1.40;1.00
6210;DHT22;3138;52.550;13.148;2023-02-25T15:38:46;1.50;1.00
6210;DHT22;3138;52.550;13.148;2023-02-25T15:41:39;1.50;1.00
6210;DHT22;3138;52.550;13.148;2023-02-25T15:44:34;1.40;1.00
6210;DHT22;3138;52.550;13.148;2023-02-25T15:47:24;1.30;71.30
6210;DHT22;3138;52.550;13.148;2023-02-25T15:49:53;1.00;1.00
6210;DHT22;3138;52.550;13.148;2023-02-25T15:52:56;0.70;1.00
6210;DHT22;3138;52.550;13.148;2023-02-25T15:55:36;0.50;1.00
6210;DHT22;3138;52.550;13.148;2023-02-25T15:58:40;0.30;99.90
6210;DHT22;3138;52.550;13.148;2023-02-25T16:01:38;0.20;1.00
6210;DHT22;3138;52.550;13.148;2023-02-25T16:04:42;0.20;52.70
6210;DHT22;3138;52.550;13.148;2023-02-25T16:07:12;0.20;99.90
6210;DHT22;3138;52.550;13.148;2023-02-25T16:09:43;0.20;1.00
6210;DHT22;3138;52.550;13.148;2023-02-25T16:12:13;0.10;1.00
6210;DHT22;3138;52.550;13.148;2023-02-25T16:14:40;0.10;8.10
6210;DHT22;3138;52.550;13.148;2023-02-25T16:17:14;0.10;99.90
6210;DHT22;3138;52.550;13.148;2023-02-25T16:19:46;0.20;91.40
6210;DHT22;3138;52.550;13.148;2023-02-25T16:22:18;0.20;1.40
6210;DHT22;3138;52.550;13.148;2023-02-25T16:24:48;0.30;1.00
6210;DHT22;3138;52.550;13.148;2023-02-25T16:27:24;0.30;1.00
6210;DHT22;3138;52.550;13.148;2023-02-25T16:30:02;0.30;99.90
6210;DHT22;3138;52.550;13.148;2023-02-25T16:32:37;0.40;99.90
6210;DHT22;3138;52.550;13.148;2023-02-25T16:35:13;0.40;60.70
6210;DHT22;3138;52.550;13.148;2023-02-25T16:37:50;0.40;1.00
6210;DHT22;3138;52.550;13.148;2023-02-25T16:40:25;0.50;1.00
6210;DHT22;3138;52.550;13.148;2023-02-25T16:42:53;0.50;99.90
6210;DHT22;3138;52.550;13.148;2023-02-25T16:45:24;0.50;99.90
6210;DHT22;3138;52.550;13.148;2023-02-25T16:47:55;0.60;1.00
6210;DHT22;3138;52.550;13.148;2023-02-25T16:50:24;0.60;1.00
6210;DHT22;3138;52.550;13.148;2023-02-25T16:52:53;0.60;1.00
6210;DHT22;3138;52.550;13.148;2023-02-25T16:55:22;0.60;1.00
6210;DHT22;3138;52.550;13.148;2023-02-25T16:58:04;0.60;1.00
6210;DHT22;3138;52.550;13.148;2023-02-25T17:00:32;0.50;99.90
6210;DHT22;3138;52.550;13.148;2023-02-25T17:03:03;0.50;99.90
6210;DHT22;3138;52.550;13.148;2023-02-25T17:05:35;0.50;99.90
6210;DHT22;3138;52.550;13.148;2023-02-25T17:08:04;0.50;99.90
6210;DHT22;3138;52.550;13.148;2023-02-25T17:10:33;0.60;99.90
6210;DHT22;3138;52.550;13.148;2023-02-25T17:13:03;0.60;99.90
6210;DHT22;3138;52.550;13.148;2023-02-25T17:15:31;0.60;99.90
6210;DHT22;3138;52.550;13.148;2023-02-25T17:18:05;0.60;99.90
6210;DHT22;3138;52.550;13.148;2023-02-25T17:20:34;0.60;99.90
6210;DHT22;3138;52.550;13.148;2023-02-25T17:23:05;0.60;99.90
6210;DHT22;3138;52.550;13.148;2023-02-25T17:25:36;0.60;99.90
6210;DHT22;3138;52.550;13.148;2023-02-25T17:28:04;0.60;94.90
6210;DHT22;3138;52.550;13.148;2023-02-25T17:30:34;0.60;42.30
6210;DHT22;3138;52.550;13.148;2023-02-25T17:33:01;0.60;95.80